sensor_id;sensor_type;location;lat;lon;timestamp;pressure;altitude;pressure_sealevel;temperature;humidity
10071;BME280;5074;53.720;10.014;2023-06-19T00:01:20;100851.00;;;18.50;100.00
10071;BME280;5074;53.720;10.014;2023-06-19T00:03:49;100850.00;;;18.51;100.00
10071;BME280;5074;53.720;10.014;2023-06-19T00:06:17;100842.09;;;18.48;100.00
10071;BME280;5074;53.720;10.014;2023-06-19T00:08:45;100848.31;;;18.50;100.00
10071;BME280;5074;53.720;10.014;2023-06-19T00:11:14;100841.47;;;18.45;100.00
10071;BME280;5074;53.720;10.014;2023-06-19T00:13:42;100842.97;;;18.49;100.00
10071;BME280;5074;53.720;10.014;2023-06-19T00:16:10;100839.97;;;18.53;100.00
10071;BME280;5074;53.720;10.014;2023-06-19T00:18:38;100837.66;;;18.47;100.00
10071;BME280;5074;53.720;10.014;2023-06-19T00:21:08;100831.50;;;18.45;100.00
10071;BME280;5074;53.720;10.014;2023-06-19T00:23:36;100837.97;;;18.43;100.00
10071;BME280;5074;53.720;10.014;2023-06-19T00:26:04;100835.59;;;18.38;100.00
10071;BME280;5074;53.720;10.014;2023-06-19T00:28:35;100837.53;;;18.36;100.00
10071;BME280;5074;53.720;10.014;2023-06-19T00:31:08;100828.44;;;18.37;100.00
10071;BME280;5074;53.720;10.014;2023-06-19T00:33:36;100831.81;;;18.40;100.00
10071;BME280;5074;53.720;10.014;2023-06-19T00:36:08;100824.41;;;18.30;100.00
10071;BME280;5074;53.720;10.014;2023-06-19T00:38:37;100834.63;;;18.39;100.00
10071;BME280;5074;53.720;10.014;2023-06-19T00:41:05;100828.03;;;18.43;100.00
10071;BME280;5074;53.720;10.014;2023-06-19T00:43:35;100837.00;;;18.44;100.00
10071;BME280;5074;53.720;10.014;2023-06-19T00:46:03;100832.97;;;18.36;100.00
10071;BME280;5074;53.720;10.014;2023-06-19T00:48:32;100823.91;;;18.37;100.00
10071;BME280;5074;53.720;10.014;2023-06-19T00:51:01;100824.50;;;18.28;100.00
10071;BME280;5074;53.720;10.014;2023-06-19T00:53:30;100829.56;;;18.20;100.00
10071;BME280;5074;53.720;10.014;2023-06-19T00:56:00;100824.22;;;18.18;100.00
10071;BME280;5074;53.720;10.014;2023-06-19T00:58:29;100822.06;;;18.11;100.00
10071;BME280;5074;53.720;10.014;2023-06-19T01:00:59;100816.44;;;18.14;100.00
10071;BME280;5074;53.720;10.014;2023-06-19T01:03:35;100807.09;;;18.05;100.00
10071;BME280;5074;53.720;10.014;2023-06-19T01:06:08;100799.41;;;17.99;100.00
10071;BME280;5074;53.720;10.014;2023-06-19T01:08:45;100803.84;;;18.00;100.00
10071;BME280;5074;53.720;10.014;2023-06-19T01:11:20;100796.91;;;17.96;100.00
10071;BME280;5074;53.720;10.014;2023-06-19T01:13:57;100790.75;;;18.07;100.00
10071;BME280;5074;53.720;10.014;2023-06-19T01:16:29;100789.34;;;18.01;100.00
10071;BME280;5074;53.720;10.014;2023-06-19T01:18:58;100779.50;;;18.00;100.00
10071;BME280;5074;53.720;10.014;2023-06-19T01:21:26;100780.06;;;18.05;100.00
10071;BME280;5074;53.720;10.014;2023-06-19T01:23:56;100781.69;;;18.08;100.00
10071;BME280;5074;53.720;10.014;2023-06-19T01:26:24;100768.69;;;18.00;100.00
10071;BME280;5074;53.720;10.014;2023-06-19T01:28:55;100760.38;;;18.03;100.00
10071;BME280;5074;53.720;10.014;2023-06-19T01:31:27;100756.88;;;18.01;100.00
10071;BME280;5074;53.720;10.014;2023-06-19T01:33:59;100753.00;;;18.05;100.00
10071;BME280;5074;53.720;10.014;2023-06-19T01:36:29;100733.72;;;17.97;100.00
10071;BME280;5074;53.720;10.014;2023-06-19T01:38:59;100741.69;;;18.13;100.00
10071;BME280;5074;53.720;10.014;2023-06-19T01:41:29;100748.06;;;18.12;100.00
10071;BME280;5074;53.720;10.014;2023-06-19T01:43:58;100738.88;;;18.14;100.00
10071;BME280;5074;53.720;10.014;2023-06-19T01:46:27;100738.25;;;18.23;100.00
10071;BME280;5074;53.720;10.014;2023-06-19T01:48:55;100742.03;;;18.21;100.00
10071;BME280;5074;53.720;10.014;2023-06-19T01:51:23;100744.41;;;18.26;100.00
10071;BME280;5074;53.720;10.014;2023-06-19T01:53:51;100741.81;;;18.24;100.00
10071;BME280;5074;53.720;10.014;2023-06-19T01:56:20;100737.41;;;18.23;100.00
10071;BME280;5074;53.720;10.014;2023-06-19T01:58:51;100737.78;;;18.17;100.00
10071;BME280;5074;53.720;10.014;2023-06-19T02:01:19;100737.91;;;18.15;100.00
10071;BME280;5074;53.720;10.014;2023-06-19T02:03:47;100747.97;;;18.13;100.00
10071;BME280;5074;53.720;10.014;2023-06-19T02:06:15;100745.25;;;18.13;100.00
10071;BME280;5074;53.720;10.014;2023-06-19T02:08:43;100748.28;;;18.09;100.00
10071;BME280;5074;53.720;10.014;2023-06-19T02:11:11;100748.19;;;18.10;100.00
10071;BME280;5074;53.720;10.014;2023-06-19T02:13:40;100750.00;;;18.10;100.00
10071;BME280;5074;53.720;10.014;2023-06-19T02:16:08;100744.91;;;18.05;100.00
10071;BME280;5074;53.720;10.014;2023-06-19T02:18:37;100747.38;;;18.08;100.00
10071;BME280;5074;53.720;10.014;2023-06-19T02:21:05;100757.03;;;18.12;100.00
10071;BME280;5074;53.720;10.014;2023-06-19T02:23:33;100748.50;;;18.05;100.00
10071;BME280;5074;53.720;10.014;2023-06-19T02:26:01;100742.09;;;18.07;100.00
10071;BME280;5074;53.720;10.014;2023-06-19T02:28:29;100742.19;;;18.05;100.00
10071;BME280;5074;53.720;10.014;2023-06-19T02:30:59;100737.22;;;17.99;100.00
10071;BME280;5074;53.720;10.014;2023-06-19T02:33:27;100744.63;;;17.95;100.00
10071;BME280;5074;53.720;10.014;2023-06-19T02:35:55;100737.97;;;18.01;100.00
10071;BME280;5074;53.720;10.014;2023-06-19T02:38:26;100735.47;;;17.98;100.00
10071;BME280;5074;53.720;10.014;2023-06-19T02:40:56;100737.00;;;18.02;100.00
10071;BME280;5074;53.720;10.014;2023-06-19T02:43:27;100743.38;;;18.01;100.00
10071;BME280;5074;53.720;10.014;2023-06-19T02:45:55;100735.94;;;18.04;100.00
10071;BME280;5074;53.720;10.014;2023-06-19T02:48:24;100736.91;;;18.03;100.00
10071;BME280;5074;53.720;10.014;2023-06-19T02:50:53;100729.44;;;18.07;100.00
10071;BME280;5074;53.720;10.014;2023-06-19T02:53:21;100726.19;;;18.02;100.00
10071;BME280;5074;53.720;10.014;2023-06-19T02:55:49;100733.66;;;17.98;100.00
10071;BME280;5074;53.720;10.014;2023-06-19T02:58:17;100735.88;;;17.92;100.00
10071;BME280;5074;53.720;10.014;2023-06-19T03:00:46;100725.59;;;17.97;100.00
10071;BME280;5074;53.720;10.014;2023-06-19T03:03:15;100727.81;;;18.04;100.00
10071;BME280;5074;53.720;10.014;2023-06-19T03:05:44;100718.06;;;18.02;100.00
10071;BME280;5074;53.720;10.014;2023-06-19T03:08:12;100728.56;;;18.07;100.00
10071;BME280;5074;53.720;10.014;2023-06-19T03:10:40;100724.22;;;18.04;100.00
10071;BME280;5074;53.720;10.014;2023-06-19T03:13:08;100714.72;;;17.98;100.00
10071;BME280;5074;53.720;10.014;2023-06-19T03:15:37;100722.38;;;17.92;100.00
10071;BME280;5074;53.720;10.014;2023-06-19T03:18:05;100717.06;;;17.90;100.00
10071;BME280;5074;53.720;10.014;2023-06-19T03:20:35;100718.50;;;17.96;100.00
10071;BME280;5074;53.720;10.014;2023-06-19T03:23:04;100720.56;;;18.05;100.00
10071;BME280;5074;53.720;10.014;2023-06-19T03:25:32;100715.56;;;17.99;100.00
10071;BME280;5074;53.720;10.014;2023-06-19T03:28:02;100718.50;;;17.96;100.00
10071;BME280;5074;53.720;10.014;2023-06-19T03:30:30;100711.13;;;17.98;100.00
10071;BME280;5074;53.720;10.014;2023-06-19T03:32:58;100715.47;;;18.00;100.00
10071;BME280;5074;53.720;10.014;2023-06-19T03:35:26;100704.53;;;18.02;100.00
10071;BME280;5074;53.720;10.014;2023-06-19T03:37:55;100706.81;;;18.08;100.00
10071;BME280;5074;53.720;10.014;2023-06-19T03:40:24;100716.25;;;18.15;100.00
10071;BME280;5074;53.720;10.014;2023-06-19T03:42:55;100709.88;;;18.16;100.00
10071;BME280;5074;53.720;10.014;2023-06-19T03:45:23;100706.75;;;18.22;100.00
10071;BME280;5074;53.720;10.014;2023-06-19T03:47:51;100706.13;;;18.19;100.00
10071;BME280;5074;53.720;10.014;2023-06-19T03:50:19;100703.72;;;18.14;100.00
10071;BME280;5074;53.720;10.014;2023-06-19T03:52:56;100699.28;;;18.13;100.00
10071;BME280;5074;53.720;10.014;2023-06-19T03:55:26;100700.47;;;18.09;100.00
10071;BME280;5074;53.720;10.014;2023-06-19T03:57:54;100694.19;;;18.09;100.00
10071;BME280;5074;53.720;10.014;2023-06-19T04:00:22;100693.50;;;18.05;100.00
10071;BME280;5074;53.720;10.014;2023-06-19T04:02:51;100691.03;;;18.02;100.00
10071;BME280;5074;53.720;10.014;2023-06-19T04:05:19;100693.31;;;18.08;100.00
10071;BME280;5074;53.720;10.014;2023-06-19T04:07:47;100695.91;;;18.10;100.00
10071;BME280;5074;53.720;10.014;2023-06-19T04:10:16;100683.59;;;18.05;100.00
10071;BME280;5074;53.720;10.014;2023-06-19T04:12:45;100692.34;;;18.09;100.00
10071;BME280;5074;53.720;10.014;2023-06-19T04:15:14;100680.97;;;18.04;100.00
10071;BME280;5074;53.720;10.014;2023-06-19T04:17:42;100676.22;;;18.08;100.00
10071;BME280;5074;53.720;10.014;2023-06-19T04:20:11;100670.81;;;18.08;100.00
10071;BME280;5074;53.720;10.014;2023-06-19T04:22:40;100676.69;;;18.14;100.00
10071;BME280;5074;53.720;10.014;2023-06-19T04:25:08;100668.25;;;18.19;100.00
10071;BME280;5074;53.720;10.014;2023-06-19T04:27:37;100676.69;;;18.14;100.00
10071;BME280;5074;53.720;10.014;2023-06-19T04:30:08;100677.09;;;18.21;100.00
10071;BME280;5074;53.720;10.014;2023-06-19T04:32:36;100685.47;;;18.31;100.00
10071;BME280;5074;53.720;10.014;2023-06-19T04:35:08;100686.31;;;18.31;100.00
10071;BME280;5074;53.720;10.014;2023-06-19T04:37:36;100689.13;;;18.30;100.00
10071;BME280;5074;53.720;10.014;2023-06-19T04:40:06;100690.31;;;18.26;100.00
10071;BME280;5074;53.720;10.014;2023-06-19T04:42:35;100690.09;;;18.16;100.00
10071;BME280;5074;53.720;10.014;2023-06-19T04:45:07;100689.88;;;18.19;100.00
10071;BME280;5074;53.720;10.014;2023-06-19T04:47:36;100700.72;;;18.19;100.00
10071;BME280;5074;53.720;10.014;2023-06-19T04:50:19;100700.28;;;18.25;100.00
10071;BME280;5074;53.720;10.014;2023-06-19T04:52:47;100707.22;;;18.29;100.00
10071;BME280;5074;53.720;10.014;2023-06-19T04:55:18;100703.75;;;18.27;100.00
10071;BME280;5074;53.720;10.014;2023-06-19T04:57:46;100698.75;;;18.21;100.00
10071;BME280;5074;53.720;10.014;2023-06-19T05:00:17;100693.34;;;18.21;100.00
10071;BME280;5074;53.720;10.014;2023-06-19T05:02:46;100695.41;;;18.17;100.00
10071;BME280;5074;53.720;10.014;2023-06-19T05:05:15;100691.81;;;18.17;100.00
10071;BME280;5074;53.720;10.014;2023-06-19T05:07:44;100683.16;;;18.12;100.00
10071;BME280;5074;53.720;10.014;2023-06-19T05:10:13;100684.13;;;18.11;100.00
10071;BME280;5074;53.720;10.014;2023-06-19T05:12:41;100682.00;;;18.16;100.00
10071;BME280;5074;53.720;10.014;2023-06-19T05:15:09;100676.47;;;18.17;100.00
10071;BME280;5074;53.720;10.014;2023-06-19T05:17:39;100679.50;;;18.13;100.00
10071;BME280;5074;53.720;10.014;2023-06-19T05:20:08;100681.09;;;18.15;100.00
10071;BME280;5074;53.720;10.014;2023-06-19T05:22:38;100678.75;;;18.23;100.00
10071;BME280;5074;53.720;10.014;2023-06-19T05:25:07;100688.38;;;18.28;100.00
10071;BME280;5074;53.720;10.014;2023-06-19T05:27:35;100688.28;;;18.29;100.00
10071;BME280;5074;53.720;10.014;2023-06-19T05:30:04;100692.72;;;18.30;100.00
10071;BME280;5074;53.720;10.014;2023-06-19T05:32:32;100685.13;;;18.35;100.00
10071;BME280;5074;53.720;10.014;2023-06-19T05:35:02;100688.59;;;18.25;100.00
10071;BME280;5074;53.720;10.014;2023-06-19T05:37:30;100682.19;;;18.26;100.00
10071;BME280;5074;53.720;10.014;2023-06-19T05:39:58;100630.22;;;17.95;100.00
10071;BME280;5074;53.720;10.014;2023-06-19T05:42:27;100681.56;;;18.22;100.00
10071;BME280;5074;53.720;10.014;2023-06-19T05:44:55;100690.53;;;18.22;100.00
10071;BME280;5074;53.720;10.014;2023-06-19T05:47:23;100690.03;;;18.30;100.00
10071;BME280;5074;53.720;10.014;2023-06-19T05:49:52;100695.09;;;18.35;100.00
10071;BME280;5074;53.720;10.014;2023-06-19T05:52:22;100701.03;;;18.40;100.00
10071;BME280;5074;53.720;10.014;2023-06-19T05:54:50;100708.19;;;18.41;100.00
10071;BME280;5074;53.720;10.014;2023-06-19T05:57:19;100702.91;;;18.39;100.00
10071;BME280;5074;53.720;10.014;2023-06-19T05:59:47;100710.56;;;18.46;100.00
10071;BME280;5074;53.720;10.014;2023-06-19T06:02:17;100710.91;;;18.41;100.00
10071;BME280;5074;53.720;10.014;2023-06-19T06:04:45;100710.56;;;18.46;100.00
10071;BME280;5074;53.720;10.014;2023-06-19T06:07:13;100721.94;;;18.38;100.00
10071;BME280;5074;53.720;10.014;2023-06-19T06:09:43;100724.44;;;18.41;100.00
10071;BME280;5074;53.720;10.014;2023-06-19T06:12:11;100720.66;;;18.44;100.00
10071;BME280;5074;53.720;10.014;2023-06-19T06:14:40;100733.00;;;18.48;100.00
10071;BME280;5074;53.720;10.014;2023-06-19T06:17:08;100734.63;;;18.50;100.00
10071;BME280;5074;53.720;10.014;2023-06-19T06:19:36;100738.66;;;18.57;100.00
10071;BME280;5074;53.720;10.014;2023-06-19T06:22:05;100740.16;;;18.62;100.00
10071;BME280;5074;53.720;10.014;2023-06-19T06:24:33;100747.88;;;18.68;100.00
10071;BME280;5074;53.720;10.014;2023-06-19T06:27:04;100756.63;;;18.71;100.00
10071;BME280;5074;53.720;10.014;2023-06-19T06:29:32;100766.50;;;18.85;100.00
10071;BME280;5074;53.720;10.014;2023-06-19T06:32:05;100762.25;;;18.81;100.00
10071;BME280;5074;53.720;10.014;2023-06-19T06:34:34;100762.91;;;18.85;100.00
10071;BME280;5074;53.720;10.014;2023-06-19T06:37:03;100765.47;;;18.88;100.00
10071;BME280;5074;53.720;10.014;2023-06-19T06:39:33;100749.47;;;18.83;100.00
10071;BME280;5074;53.720;10.014;2023-06-19T06:42:02;100748.41;;;18.86;100.00
10071;BME280;5074;53.720;10.014;2023-06-19T06:44:31;100750.38;;;18.84;100.00
10071;BME280;5074;53.720;10.014;2023-06-19T06:46:59;100739.53;;;18.71;100.00
10071;BME280;5074;53.720;10.014;2023-06-19T06:49:27;100743.09;;;18.71;100.00
10071;BME280;5074;53.720;10.014;2023-06-19T06:51:56;100733.34;;;18.69;100.00
10071;BME280;5074;53.720;10.014;2023-06-19T06:54:24;100715.47;;;18.53;100.00
10071;BME280;5074;53.720;10.014;2023-06-19T06:56:52;100726.63;;;18.62;100.00
10071;BME280;5074;53.720;10.014;2023-06-19T06:59:25;100721.63;;;18.55;100.00
10071;BME280;5074;53.720;10.014;2023-06-19T07:01:54;100722.41;;;18.57;100.00
10071;BME280;5074;53.720;10.014;2023-06-19T07:04:23;100722.72;;;18.53;100.00
10071;BME280;5074;53.720;10.014;2023-06-19T07:06:51;100717.72;;;18.47;100.00
10071;BME280;5074;53.720;10.014;2023-06-19T07:09:19;100722.41;;;18.57;100.00
10071;BME280;5074;53.720;10.014;2023-06-19T07:11:48;100721.53;;;18.57;100.00
10071;BME280;5074;53.720;10.014;2023-06-19T07:14:20;100720.25;;;18.63;100.00
10071;BME280;5074;53.720;10.014;2023-06-19T07:16:50;100708.44;;;18.64;100.00
10071;BME280;5074;53.720;10.014;2023-06-19T07:19:18;100705.28;;;18.57;100.00
10071;BME280;5074;53.720;10.014;2023-06-19T07:21:46;100709.97;;;18.68;100.00
10071;BME280;5074;53.720;10.014;2023-06-19T07:24:15;100710.72;;;18.70;100.00
10071;BME280;5074;53.720;10.014;2023-06-19T07:26:43;100724.84;;;18.88;100.00
10071;BME280;5074;53.720;10.014;2023-06-19T07:29:11;100727.22;;;18.92;100.00
10071;BME280;5074;53.720;10.014;2023-06-19T07:31:39;100721.03;;;18.90;100.00
10071;BME280;5074;53.720;10.014;2023-06-19T07:34:11;100716.03;;;18.97;100.00
10071;BME280;5074;53.720;10.014;2023-06-19T07:36:39;100700.00;;;18.81;100.00
10071;BME280;5074;53.720;10.014;2023-06-19T07:39:09;100714.41;;;18.95;100.00
10071;BME280;5074;53.720;10.014;2023-06-19T07:41:37;100708.03;;;18.96;100.00
10071;BME280;5074;53.720;10.014;2023-06-19T07:44:05;100710.94;;;18.80;100.00
10071;BME280;5074;53.720;10.014;2023-06-19T07:46:33;100709.34;;;18.90;100.00
10071;BME280;5074;53.720;10.014;2023-06-19T07:49:02;100716.03;;;18.97;100.00
10071;BME280;5074;53.720;10.014;2023-06-19T07:51:31;100724.38;;;19.07;100.00
10071;BME280;5074;53.720;10.014;2023-06-19T07:53:59;100725.69;;;19.14;100.00
10071;BME280;5074;53.720;10.014;2023-06-19T07:56:27;100726.41;;;19.16;100.00
10071;BME280;5074;53.720;10.014;2023-06-19T07:58:55;100721.09;;;19.27;100.00
10071;BME280;5074;53.720;10.014;2023-06-19T08:01:23;100715.06;;;19.24;100.00
10071;BME280;5074;53.720;10.014;2023-06-19T08:03:51;100719.78;;;19.33;100.00
10071;BME280;5074;53.720;10.014;2023-06-19T08:06:20;100725.50;;;19.54;100.00
10071;BME280;5074;53.720;10.014;2023-06-19T08:08:49;100727.94;;;19.70;100.00
10071;BME280;5074;53.720;10.014;2023-06-19T08:11:18;100727.44;;;19.89;100.00
10071;BME280;5074;53.720;10.014;2023-06-19T08:13:46;100731.38;;;20.09;100.00
10071;BME280;5074;53.720;10.014;2023-06-19T08:16:14;100727.44;;;20.25;100.00
10071;BME280;5074;53.720;10.014;2023-06-19T08:18:43;100743.22;;;20.44;100.00
10071;BME280;5074;53.720;10.014;2023-06-19T08:21:12;100738.31;;;20.60;100.00
10071;BME280;5074;53.720;10.014;2023-06-19T08:23:41;100732.56;;;20.76;100.00
10071;BME280;5074;53.720;10.014;2023-06-19T08:26:12;100733.09;;;20.81;100.00
10071;BME280;5074;53.720;10.014;2023-06-19T08:28:40;100728.66;;;20.92;100.00
10071;BME280;5074;53.720;10.014;2023-06-19T08:31:09;100728.16;;;20.98;100.00
10071;BME280;5074;53.720;10.014;2023-06-19T08:33:37;100725.78;;;21.16;100.00
10071;BME280;5074;53.720;10.014;2023-06-19T08:36:06;100725.78;;;21.27;100.00
10071;BME280;5074;53.720;10.014;2023-06-19T08:38:34;100728.75;;;21.36;100.00
10071;BME280;5074;53.720;10.014;2023-06-19T08:41:03;100724.44;;;21.56;100.00
10071;BME280;5074;53.720;10.014;2023-06-19T08:43:32;100719.25;;;21.64;100.00
10071;BME280;5074;53.720;10.014;2023-06-19T08:46:09;100710.72;;;21.57;100.00
10071;BME280;5074;53.720;10.014;2023-06-19T08:48:37;100713.94;;;21.62;100.00
10071;BME280;5074;53.720;10.014;2023-06-19T08:51:06;100715.88;;;21.72;100.00
10071;BME280;5074;53.720;10.014;2023-06-19T08:53:35;100711.91;;;21.76;100.00
10071;BME280;5074;53.720;10.014;2023-06-19T08:56:04;100705.44;;;21.88;100.00
10071;BME280;5074;53.720;10.014;2023-06-19T08:58:34;100709.13;;;21.98;100.00
10071;BME280;5074;53.720;10.014;2023-06-19T09:01:02;100704.69;;;22.18;100.00
10071;BME280;5074;53.720;10.014;2023-06-19T09:03:30;100709.22;;;22.29;100.00
10071;BME280;5074;53.720;10.014;2023-06-19T09:06:03;100701.88;;;22.41;100.00
10071;BME280;5074;53.720;10.014;2023-06-19T09:08:31;100713.22;;;22.67;100.00
10071;BME280;5074;53.720;10.014;2023-06-19T09:11:00;100710.28;;;22.80;100.00
10071;BME280;5074;53.720;10.014;2023-06-19T09:13:29;100709.66;;;22.98;100.00
10071;BME280;5074;53.720;10.014;2023-06-19T09:16:00;100715.81;;;23.21;100.00
10071;BME280;5074;53.720;10.014;2023-06-19T09:18:29;100714.31;;;23.38;100.00
10071;BME280;5074;53.720;10.014;2023-06-19T09:20:58;100708.03;;;23.57;100.00
10071;BME280;5074;53.720;10.014;2023-06-19T09:23:26;100713.22;;;23.70;100.00
10071;BME280;5074;53.720;10.014;2023-06-19T09:25:57;100709.00;;;23.87;100.00
10071;BME280;5074;53.720;10.014;2023-06-19T09:28:27;100710.72;;;23.98;100.00
10071;BME280;5074;53.720;10.014;2023-06-19T09:30:57;100704.81;;;24.12;100.00
10071;BME280;5074;53.720;10.014;2023-06-19T09:33:28;100707.28;;;24.15;100.00
10071;BME280;5074;53.720;10.014;2023-06-19T09:35:58;100700.94;;;24.34;100.00
10071;BME280;5074;53.720;10.014;2023-06-19T09:38:27;100702.34;;;24.48;100.00
10071;BME280;5074;53.720;10.014;2023-06-19T09:40:57;100696.72;;;24.50;100.00
10071;BME280;5074;53.720;10.014;2023-06-19T09:43:32;100696.88;;;24.58;100.00
10071;BME280;5074;53.720;10.014;2023-06-19T09:46:02;100698.84;;;24.85;100.00
10071;BME280;5074;53.720;10.014;2023-06-19T09:48:33;100697.50;;;24.99;100.00
10071;BME280;5074;53.720;10.014;2023-06-19T09:51:07;100690.13;;;25.09;100.00
10071;BME280;5074;53.720;10.014;2023-06-19T09:53:37;100691.06;;;25.28;100.00
10071;BME280;5074;53.720;10.014;2023-06-19T09:56:05;100696.53;;;25.28;100.00
10071;BME280;5074;53.720;10.014;2023-06-19T09:58:35;100691.06;;;25.28;100.00
10071;BME280;5074;53.720;10.014;2023-06-19T10:01:04;100688.84;;;25.41;100.00
10071;BME280;5074;53.720;10.014;2023-06-19T10:03:35;100703.59;;;25.58;100.00
10071;BME280;5074;53.720;10.014;2023-06-19T10:06:04;100689.03;;;25.58;100.00
10071;BME280;5074;53.720;10.014;2023-06-19T10:08:39;100691.53;;;25.69;100.00
10071;BME280;5074;53.720;10.014;2023-06-19T10:11:07;100688.31;;;25.56;100.00
10071;BME280;5074;53.720;10.014;2023-06-19T10:13:36;100679.59;;;25.70;100.00
10071;BME280;5074;53.720;10.014;2023-06-19T10:16:06;100692.41;;;25.88;100.00
10071;BME280;5074;53.720;10.014;2023-06-19T10:18:46;100681.13;;;26.00;100.00
10071;BME280;5074;53.720;10.014;2023-06-19T10:21:18;100688.16;;;26.03;100.00
10071;BME280;5074;53.720;10.014;2023-06-19T10:23:53;100684.31;;;26.14;100.00
10071;BME280;5074;53.720;10.014;2023-06-19T10:26:31;100671.69;;;26.39;96.93
10071;BME280;5074;53.720;10.014;2023-06-19T10:29:00;100673.25;;;26.24;96.10
10071;BME280;5074;53.720;10.014;2023-06-19T10:31:28;100672.97;;;26.53;97.75
10071;BME280;5074;53.720;10.014;2023-06-19T10:33:58;100674.59;;;26.38;95.08
10071;BME280;5074;53.720;10.014;2023-06-19T10:36:26;100671.78;;;26.29;92.48
10071;BME280;5074;53.720;10.014;2023-06-19T10:38:54;100670.03;;;26.28;92.37
10071;BME280;5074;53.720;10.014;2023-06-19T10:41:23;100675.44;;;26.20;94.24
10071;BME280;5074;53.720;10.014;2023-06-19T10:43:53;100681.06;;;25.82;94.79
10071;BME280;5074;53.720;10.014;2023-06-19T10:46:22;100675.94;;;25.97;97.33
10071;BME280;5074;53.720;10.014;2023-06-19T10:48:51;100674.22;;;26.14;98.06
10071;BME280;5074;53.720;10.014;2023-06-19T10:51:25;100675.78;;;26.43;94.28
10071;BME280;5074;53.720;10.014;2023-06-19T10:53:54;100675.09;;;26.59;94.65
10071;BME280;5074;53.720;10.014;2023-06-19T10:56:23;100680.53;;;26.77;93.46
10071;BME280;5074;53.720;10.014;2023-06-19T10:58:57;100684.44;;;26.75;91.86
10071;BME280;5074;53.720;10.014;2023-06-19T11:01:32;100694.72;;;26.73;94.19
10071;BME280;5074;53.720;10.014;2023-06-19T11:04:02;100683.34;;;26.94;93.19
10071;BME280;5074;53.720;10.014;2023-06-19T11:06:33;100685.53;;;27.16;91.64
10071;BME280;5074;53.720;10.014;2023-06-19T11:09:05;100677.16;;;27.26;89.37
10071;BME280;5074;53.720;10.014;2023-06-19T11:11:38;100685.16;;;27.54;89.28
10071;BME280;5074;53.720;10.014;2023-06-19T11:14:06;100677.78;;;27.12;91.22
10071;BME280;5074;53.720;10.014;2023-06-19T11:16:37;100680.50;;;27.03;92.33
10071;BME280;5074;53.720;10.014;2023-06-19T11:19:06;100673.03;;;26.88;93.62
10071;BME280;5074;53.720;10.014;2023-06-19T11:21:37;100675.34;;;27.00;92.15
10071;BME280;5074;53.720;10.014;2023-06-19T11:24:10;100680.16;;;27.07;91.81
10071;BME280;5074;53.720;10.014;2023-06-19T11:26:39;100681.25;;;27.57;90.19
10071;BME280;5074;53.720;10.014;2023-06-19T11:29:14;100687.56;;;27.57;89.50
10071;BME280;5074;53.720;10.014;2023-06-19T11:31:43;100682.56;;;27.44;89.56
10071;BME280;5074;53.720;10.014;2023-06-19T11:34:11;100681.59;;;27.53;90.08
10071;BME280;5074;53.720;10.014;2023-06-19T11:36:41;100683.66;;;27.76;88.84
10071;BME280;5074;53.720;10.014;2023-06-19T11:39:11;100676.66;;;27.90;89.92
10071;BME280;5074;53.720;10.014;2023-06-19T11:41:40;100679.47;;;28.15;88.45
10071;BME280;5074;53.720;10.014;2023-06-19T11:44:09;100682.06;;;28.08;89.07
10071;BME280;5074;53.720;10.014;2023-06-19T11:46:38;100681.53;;;28.13;87.50
10071;BME280;5074;53.720;10.014;2023-06-19T11:49:12;100681.00;;;28.34;85.56
10071;BME280;5074;53.720;10.014;2023-06-19T11:51:42;100679.97;;;28.35;85.89
10071;BME280;5074;53.720;10.014;2023-06-19T11:54:12;100679.28;;;28.57;85.22
10071;BME280;5074;53.720;10.014;2023-06-19T11:56:41;100668.13;;;28.18;84.90
10071;BME280;5074;53.720;10.014;2023-06-19T11:59:10;100675.84;;;28.39;85.06
10071;BME280;5074;53.720;10.014;2023-06-19T12:01:38;100670.53;;;28.29;82.38
10071;BME280;5074;53.720;10.014;2023-06-19T12:04:06;100657.31;;;28.00;84.90
10071;BME280;5074;53.720;10.014;2023-06-19T12:06:35;100671.81;;;27.59;87.17
10071;BME280;5074;53.720;10.014;2023-06-19T12:09:05;100666.31;;;27.67;85.65
10071;BME280;5074;53.720;10.014;2023-06-19T12:11:33;100663.38;;;27.52;85.74
10071;BME280;5074;53.720;10.014;2023-06-19T12:14:01;100654.34;;;27.17;86.64
10071;BME280;5074;53.720;10.014;2023-06-19T12:16:29;100667.59;;;27.30;84.88
10071;BME280;5074;53.720;10.014;2023-06-19T12:18:58;100660.00;;;27.67;82.54
10071;BME280;5074;53.720;10.014;2023-06-19T12:21:26;100657.44;;;27.73;81.72
10071;BME280;5074;53.720;10.014;2023-06-19T12:24:06;100650.25;;;27.21;85.48
10071;BME280;5074;53.720;10.014;2023-06-19T12:26:34;100661.56;;;27.27;86.32
10071;BME280;5074;53.720;10.014;2023-06-19T12:29:03;100667.81;;;27.45;85.38
10071;BME280;5074;53.720;10.014;2023-06-19T12:31:32;100660.53;;;27.70;83.50
10071;BME280;5074;53.720;10.014;2023-06-19T12:34:00;100666.88;;;27.79;83.42
10071;BME280;5074;53.720;10.014;2023-06-19T12:36:46;100661.69;;;27.60;83.82
10071;BME280;5074;53.720;10.014;2023-06-19T12:39:16;100668.41;;;27.82;84.99
10071;BME280;5074;53.720;10.014;2023-06-19T12:41:44;100674.06;;;27.80;85.08
10071;BME280;5074;53.720;10.014;2023-06-19T12:44:12;100682.72;;;28.10;82.62
10071;BME280;5074;53.720;10.014;2023-06-19T12:46:40;100686.16;;;28.04;82.78
10071;BME280;5074;53.720;10.014;2023-06-19T12:49:09;100685.56;;;27.76;84.11
10071;BME280;5074;53.720;10.014;2023-06-19T12:51:37;100690.56;;;27.29;87.65
10071;BME280;5074;53.720;10.014;2023-06-19T12:54:05;100683.41;;;27.02;89.72